Time;durP1;ratioP1;P1;durP2;ratioP2;P2;SDS_P1;SDS_P2;PMS_P1;PMS_P2;Temp;Humidity;BMP_temperature;BMP_pressure;BME280_temperature;BME280_humidity;BME280_pressure;Samples;Min_cycle;Max_cycle;Signal;HPM_P1;HPM_P2
2021/05/27 00:00:27;;;;;;;51.58;33.78;;;10.60;99.90;;;;;;5093729;28;20012;-69
2021/05/27 00:02:53;;;;;;;57.63;36.15;;;10.60;99.90;;;;;;5094920;28;20077;-68
2021/05/27 00:05:19;;;;;;;59.33;35.90;;;10.60;99.90;;;;;;5094789;28;20099;-69
2021/05/27 00:07:45;;;;;;;61.65;39.50;;;10.60;99.90;;;;;;5094504;28;20021;-68
2021/05/27 00:10:13;;;;;;;59.75;36.17;;;10.60;99.90;;;;;;5094131;28;20025;-68
2021/05/27 00:12:39;;;;;;;59.10;37.95;;;10.60;99.90;;;;;;5094456;28;20058;-69
2021/05/27 00:15:07;;;;;;;57.17;35.75;;;10.60;99.90;;;;;;5094679;28;20488;-69
2021/05/27 00:17:32;;;;;;;60.08;35.47;;;10.50;99.90;;;;;;5094384;28;20020;-69
2021/05/27 00:19:58;;;;;;;61.70;39.30;;;10.60;99.90;;;;;;5094537;28;20016;-68
2021/05/27 00:22:24;;;;;;;63.20;39.20;;;10.50;99.90;;;;;;5094540;28;20028;-69
2021/05/27 00:24:49;;;;;;;59.05;37.78;;;10.50;99.90;;;;;;5093924;28;20024;-69
2021/05/27 00:27:15;;;;;;;59.60;37.65;;;10.50;99.90;;;;;;5094439;28;20024;-69
2021/05/27 00:29:41;;;;;;;62.30;39.92;;;10.50;99.90;;;;;;5094419;28;20024;-69
2021/05/27 00:32:07;;;;;;;61.15;38.40;;;10.50;99.90;;;;;;5094311;28;20103;-69
2021/05/27 00:34:32;;;;;;;58.97;37.47;;;10.50;99.90;;;;;;5094373;28;20052;-69
2021/05/27 00:36:58;;;;;;;61.70;37.05;;;10.50;99.90;;;;;;5094308;28;20419;-69
2021/05/27 00:39:24;;;;;;;63.75;38.30;;;10.50;99.90;;;;;;5094273;28;20024;-69
2021/05/27 00:41:49;;;;;;;62.08;39.60;;;10.50;99.90;;;;;;5094276;28;20032;-69
2021/05/27 00:44:31;;;;;;;62.08;39.35;;;10.50;99.90;;;;;;5093712;28;20050;-69
2021/05/27 00:47:00;;;;;;;59.30;36.70;;;10.50;99.90;;;;;;5094033;28;20024;-69
2021/05/27 00:49:26;;;;;;;62.47;36.00;;;10.50;99.90;;;;;;5094219;28;20141;-69
2021/05/27 00:51:52;;;;;;;55.83;34.63;;;10.50;99.90;;;;;;5093464;28;20457;-69
2021/05/27 00:54:19;;;;;;;55.08;35.28;;;10.50;99.90;;;;;;5094143;28;20016;-69
2021/05/27 00:56:47;;;;;;;53.67;34.67;;;10.50;99.90;;;;;;5094157;28;20542;-69
2021/05/27 00:59:14;;;;;;;57.47;34.45;;;10.50;99.90;;;;;;5094100;28;20084;-69
2021/05/27 01:01:39;;;;;;;55.15;34.47;;;10.50;99.90;;;;;;5094052;28;20045;-69
2021/05/27 01:04:06;;;;;;;51.13;32.63;;;10.50;99.90;;;;;;5093468;28;20102;-69
2021/05/27 01:06:32;;;;;;;46.00;31.60;;;10.50;99.90;;;;;;5094005;28;20028;-69
2021/05/27 01:08:57;;;;;;;53.38;33.88;;;10.50;99.90;;;;;;5093461;28;20031;-69
2021/05/27 01:11:24;;;;;;;48.88;32.53;;;10.50;99.90;;;;;;5093912;28;20024;-69
2021/05/27 01:13:49;;;;;;;51.55;33.60;;;10.50;99.90;;;;;;5093716;28;20376;-69
2021/05/27 01:16:16;;;;;;;50.05;32.17;;;10.50;99.90;;;;;;5094005;28;20028;-69
2021/05/27 01:18:42;;;;;;;54.85;34.28;;;10.50;99.90;;;;;;5093959;28;20024;-69
2021/05/27 01:21:09;;;;;;;53.75;33.67;;;10.40;99.90;;;;;;5093378;28;20030;-69
2021/05/27 01:23:34;;;;;;;48.22;32.80;;;10.40;99.90;;;;;;5093905;28;20461;-69
2021/05/27 01:26:01;;;;;;;52.38;31.83;;;10.40;99.90;;;;;;5093836;28;20028;-69
2021/05/27 01:28:30;;;;;;;56.55;33.58;;;10.40;99.90;;;;;;5093870;28;20523;-69
2021/05/27 01:30:56;;;;;;;55.85;35.60;;;10.40;99.90;;;;;;5093754;28;20028;-69
2021/05/27 01:33:22;;;;;;;58.28;36.17;;;10.40;99.90;;;;;;5091987;28;20020;-69
2021/05/27 01:35:48;;;;;;;52.40;33.95;;;10.30;99.90;;;;;;5093745;28;20020;-69
2021/05/27 01:38:17;;;;;;;58.45;36.10;;;10.40;99.90;;;;;;5093741;28;20061;-69
2021/05/27 01:40:43;;;;;;;54.05;35.05;;;10.30;99.90;;;;;;5093457;28;20579;-69
2021/05/27 01:43:09;;;;;;;54.80;35.85;;;10.30;99.90;;;;;;5093692;28;20072;-69
2021/05/27 01:45:36;;;;;;;62.42;37.35;;;10.40;99.90;;;;;;5093112;28;20469;-68
2021/05/27 01:48:02;;;;;;;63.65;40.30;;;10.30;99.90;;;;;;5093361;28;20024;-69
2021/05/27 01:50:28;;;;;;;54.95;35.72;;;10.30;99.90;;;;;;5093278;28;20024;-69
2021/05/27 01:52:57;;;;;;;50.30;33.42;;;10.30;99.90;;;;;;5093036;28;20032;-69
2021/05/27 01:55:23;;;;;;;44.67;30.60;;;10.30;99.90;;;;;;5093362;28;20066;-68
2021/05/27 01:57:49;;;;;;;39.35;25.08;;;10.20;99.90;;;;;;5093946;28;20020;-68
2021/05/27 02:00:15;;;;;;;24.33;16.85;;;10.10;99.90;;;;;;5096938;28;20021;-69
2021/05/27 02:02:40;;;;;;;20.40;12.70;;;10.10;99.90;;;;;;5096905;28;20051;-69
2021/05/27 02:05:06;;;;;;;13.52;9.27;;;10.00;99.90;;;;;;5095700;28;20031;-69
2021/05/27 02:07:32;;;;;;;15.25;10.75;;;9.90;99.90;;;;;;5096858;28;20552;-69
2021/05/27 02:09:57;;;;;;;20.75;10.20;;;9.90;99.90;;;;;;5097067;28;20027;-68
2021/05/27 02:12:23;;;;;;;14.30;9.52;;;9.90;99.90;;;;;;5096707;28;20097;-69
2021/05/27 02:14:48;;;;;;;16.70;8.77;;;9.90;99.90;;;;;;5096949;28;20369;-69
2021/05/27 02:17:14;;;;;;;10.88;8.30;;;9.90;99.90;;;;;;5096909;28;20095;-69
2021/05/27 02:19:40;;;;;;;13.95;7.40;;;9.90;99.90;;;;;;5096859;28;20028;-69
2021/05/27 02:22:05;;;;;;;10.40;7.03;;;9.80;99.90;;;;;;5096572;28;20024;-69
2021/05/27 02:24:31;;;;;;;13.10;6.90;;;9.80;99.90;;;;;;5096774;28;20031;-69
2021/05/27 02:26:56;;;;;;;9.05;6.72;;;9.80;99.90;;;;;;5095578;28;20071;-69
2021/05/27 02:29:22;;;;;;;9.98;7.40;;;9.80;99.90;;;;;;5096390;28;20032;-69
2021/05/27 02:31:48;;;;;;;10.30;7.47;;;9.80;99.90;;;;;;5096281;28;20028;-69
2021/05/27 02:34:13;;;;;;;12.95;6.65;;;9.80;99.90;;;;;;5096618;28;20070;-69
2021/05/27 02:36:39;;;;;;;7.68;5.82;;;9.70;99.90;;;;;;5094720;28;20107;-69
2021/05/27 02:39:05;;;;;;;7.97;4.65;;;9.70;99.90;;;;;;5096508;28;20020;-69
2021/05/27 02:41:31;;;;;;;4.38;3.88;;;9.60;99.90;;;;;;5095003;28;20031;-69
2021/05/27 02:43:56;;;;;;;5.93;3.95;;;9.60;99.90;;;;;;5096182;28;20024;-69
2021/05/27 02:46:22;;;;;;;5.22;4.03;;;9.60;99.90;;;;;;5096407;28;20024;-69
2021/05/27 02:48:48;;;;;;;6.43;3.85;;;9.60;99.90;;;;;;5096312;28;20027;-69
2021/05/27 02:51:13;;;;;;;5.00;4.07;;;9.60;99.90;;;;;;5095777;28;20055;-69
2021/05/27 02:53:39;;;;;;;6.10;4.18;;;9.60;99.90;;;;;;5096232;28;20057;-69
2021/05/27 02:56:04;;;;;;;6.38;4.03;;;9.60;99.90;;;;;;5096191;28;20059;-69
2021/05/27 02:58:30;;;;;;;5.20;4.55;;;9.50;99.90;;;;;;5095843;28;20024;-69
2021/05/27 03:00:55;;;;;;;6.97;4.57;;;9.50;99.90;;;;;;5096058;28;20024;-69
2021/05/27 03:03:21;;;;;;;8.13;5.00;;;9.50;99.90;;;;;;5096024;28;20049;-69
2021/05/27 03:05:48;;;;;;;7.53;5.18;;;9.60;99.90;;;;;;5094830;28;20048;-69
2021/05/27 03:08:14;;;;;;;12.68;6.07;;;9.50;99.90;;;;;;5095995;28;20046;-69
2021/05/27 03:10:41;;;;;;;8.43;6.15;;;9.50;99.90;;;;;;5094381;28;20381;-69
2021/05/27 03:13:08;;;;;;;9.75;6.75;;;9.60;99.90;;;;;;5095607;28;20020;-69
2021/05/27 03:15:35;;;;;;;9.73;6.95;;;9.60;99.90;;;;;;5095810;28;20454;-69
2021/05/27 03:18:03;;;;;;;11.65;7.50;;;9.60;99.90;;;;;;5095489;28;20457;-68
2021/05/27 03:20:29;;;;;;;11.90;7.80;;;9.60;99.90;;;;;;5095408;28;20024;-68
2021/05/27 03:22:54;;;;;;;11.70;8.02;;;9.50;99.90;;;;;;5095688;28;20028;-69
2021/05/27 03:25:20;;;;;;;12.10;8.10;;;9.60;99.90;;;;;;5095559;28;20053;-69
2021/05/27 03:27:46;;;;;;;13.35;9.15;;;9.60;99.90;;;;;;5095268;28;20020;-68
2021/05/27 03:30:13;;;;;;;15.95;10.10;;;9.60;99.90;;;;;;5094184;28;20400;-69
2021/05/27 03:32:40;;;;;;;15.38;10.02;;;9.70;99.90;;;;;;5095485;28;20131;-69
2021/05/27 03:35:06;;;;;;;18.55;10.27;;;9.60;99.90;;;;;;5094441;28;20472;-69
2021/05/27 03:37:31;;;;;;;20.40;11.00;;;9.70;99.90;;;;;;5095360;28;20020;-69
2021/05/27 03:40:28;;;;;;;16.55;10.15;;;9.70;99.90;;;;;;5095006;28;20031;-68
2021/05/27 03:42:49;;;;;;;15.85;9.60;;;9.70;99.90;;;;;;5094594;28;20035;-68
2021/05/27 03:45:17;;;;;;;15.07;9.43;;;9.60;99.90;;;;;;5095220;28;20146;-69
2021/05/27 03:47:42;;;;;;;12.48;8.88;;;9.60;99.90;;;;;;5094826;28;20035;-68
2021/05/27 03:50:10;;;;;;;18.23;9.10;;;9.60;99.90;;;;;;5095112;28;20020;-68
2021/05/27 03:52:37;;;;;;;16.25;9.32;;;9.70;99.90;;;;;;5094803;28;20032;-68
2021/05/27 03:55:05;;;;;;;21.67;9.63;;;9.70;99.90;;;;;;5095000;28;20012;-68
2021/05/27 03:57:30;;;;;;;16.38;10.23;;;9.80;99.90;;;;;;5094966;28;20027;-68
2021/05/27 04:02:45;;;;;;;24.02;13.23;;;9.80;99.90;;;;;;5094219;28;20020;-68
2021/05/27 04:07:57;;;;;;;21.15;12.13;;;9.80;99.90;;;;;;5094111;28;20020;-68
2021/05/27 04:10:24;;;;;;;21.73;12.82;;;9.80;99.90;;;;;;5094666;28;20099;-68
2021/05/27 04:12:50;;;;;;;24.25;12.45;;;9.80;99.90;;;;;;5094695;28;20025;-68
2021/05/27 04:15:20;;;;;;;18.30;10.45;;;9.80;99.90;;;;;;5094429;28;20404;-68
2021/05/27 04:17:46;;;;;;;18.83;11.85;;;9.80;99.90;;;;;;5094644;28;20020;-68
2021/05/27 04:20:13;;;;;;;20.67;10.52;;;9.80;99.90;;;;;;5094552;28;20103;-68
2021/05/27 04:22:41;;;;;;;22.33;10.38;;;9.80;99.90;;;;;;5093959;28;20110;-68
2021/05/27 04:25:07;;;;;;;19.60;10.10;;;9.80;99.90;;;;;;5094242;28;20024;-68
2021/05/27 04:27:33;;;;;;;22.20;10.23;;;9.80;99.90;;;;;;5094225;28;20449;-68
2021/05/27 04:30:12;;;;;;;19.70;10.10;;;9.80;99.90;;;;;;5094437;28;20035;-69
2021/05/27 04:32:54;;;;;;;13.35;8.73;;;9.80;99.90;;;;;;5094422;28;20508;-68
2021/05/27 04:35:23;;;;;;;14.07;7.95;;;9.80;99.90;;;;;;5094359;28;20476;-68
2021/05/27 04:37:49;;;;;;;17.73;9.32;;;9.80;99.90;;;;;;5094294;28;20458;-69
2021/05/27 04:40:15;;;;;;;16.55;10.50;;;9.70;99.90;;;;;;5094295;28;20034;-68
2021/05/27 04:42:41;;;;;;;17.25;9.38;;;9.70;99.90;;;;;;5094257;28;20095;-68
2021/05/27 04:45:07;;;;;;;15.80;9.38;;;9.70;99.90;;;;;;5094224;28;20066;-69
2021/05/27 04:47:33;;;;;;;19.23;11.00;;;9.70;99.90;;;;;;5094227;28;20028;-68
2021/05/27 04:49:58;;;;;;;16.13;9.52;;;9.80;99.90;;;;;;5092396;28;20028;-68
2021/05/27 04:52:25;;;;;;;16.42;9.07;;;9.70;99.90;;;;;;5093429;28;20051;-68
2021/05/27 04:54:50;;;;;;;17.85;10.10;;;9.70;99.90;;;;;;5094129;28;20016;-68
2021/05/27 04:57:16;;;;;;;14.38;9.02;;;9.70;99.90;;;;;;5093904;28;20025;-68
2021/05/27 04:59:41;;;;;;;17.52;10.43;;;9.80;99.90;;;;;;5094096;28;20032;-68
2021/05/27 05:02:08;;;;;;;15.57;9.55;;;9.70;99.90;;;;;;5094111;28;20365;-68
2021/05/27 05:04:33;;;;;;;14.55;10.32;;;9.70;99.90;;;;;;5094131;28;20020;-68
2021/05/27 05:06:58;;;;;;;17.75;11.00;;;9.80;99.90;;;;;;5094058;28;20484;-68
2021/05/27 05:09:24;;;;;;;18.05;10.27;;;9.70;99.90;;;;;;5094010;28;20020;-68
2021/05/27 05:11:49;;;;;;;14.43;10.05;;;9.70;99.90;;;;;;5093941;28;20033;-68
2021/05/27 05:14:15;;;;;;;16.25;9.90;;;9.80;99.90;;;;;;5092109;28;20020;-68
2021/05/27 05:16:40;;;;;;;17.27;10.98;;;9.80;99.90;;;;;;5093930;28;20053;-68
2021/05/27 05:19:06;;;;;;;17.20;8.60;;;9.80;99.90;;;;;;5093927;28;20016;-68
2021/05/27 05:21:31;;;;;;;14.02;9.40;;;9.80;99.90;;;;;;5093645;28;20024;-68
2021/05/27 05:23:57;;;;;;;17.02;9.85;;;9.80;99.90;;;;;;5093885;28;20478;-68
2021/05/27 05:26:22;;;;;;;19.17;10.32;;;9.80;99.90;;;;;;5093589;28;20071;-68
2021/05/27 05:28:48;;;;;;;17.83;10.48;;;9.80;99.90;;;;;;5093839;28;20028;-68
2021/05/27 05:31:13;;;;;;;24.33;15.13;;;9.80;99.90;;;;;;5093792;28;20032;-68
2021/05/27 05:33:39;;;;;;;57.05;29.50;;;9.80;99.90;;;;;;5095312;28;20364;-68
2021/05/27 05:36:05;;;;;;;18.83;11.05;;;9.90;99.90;;;;;;5097182;28;20024;-68
2021/05/27 05:38:30;;;;;;;18.33;10.63;;;9.90;99.90;;;;;;5097686;28;20129;-68
2021/05/27 05:40:56;;;;;;;15.15;9.93;;;9.90;99.90;;;;;;5097378;28;20101;-68
2021/05/27 05:43:21;;;;;;;15.63;11.45;;;9.90;99.90;;;;;;5097485;28;20535;-68
2021/05/27 05:45:47;;;;;;;19.98;10.13;;;9.90;99.90;;;;;;5097491;28;20031;-68
2021/05/27 05:48:13;;;;;;;16.50;12.02;;;9.90;99.90;;;;;;5097449;28;20107;-68
2021/05/27 05:50:57;;;;;;;17.67;11.57;;;9.90;99.90;;;;;;5095239;28;20051;-68
2021/05/27 05:53:23;;;;;;;15.48;10.52;;;9.90;99.90;;;;;;5097426;28;20012;-68
2021/05/27 05:55:51;;;;;;;18.17;9.80;;;9.90;99.90;;;;;;5097350;28;20031;-68
2021/05/27 05:58:17;;;;;;;17.10;10.20;;;9.90;99.90;;;;;;5097043;28;20017;-68
2021/05/27 06:00:44;;;;;;;16.70;10.32;;;9.90;99.90;;;;;;5097203;28;20028;-68
2021/05/27 06:03:10;;;;;;;16.70;10.57;;;9.80;99.90;;;;;;5097157;28;20086;-68
2021/05/27 06:05:36;;;;;;;19.13;10.32;;;9.80;99.90;;;;;;5095781;28;20551;-68
2021/05/27 06:08:01;;;;;;;18.00;12.07;;;9.70;99.90;;;;;;5095012;28;20115;-68
2021/05/27 06:10:27;;;;;;;20.52;12.13;;;9.70;99.90;;;;;;5074359;28;20482;-68
2021/05/27 06:12:56;;;;;;;19.23;11.55;;;9.70;99.90;;;;;;5093859;28;20029;-68
2021/05/27 06:15:22;;;;;;;18.90;11.38;;;9.70;99.90;;;;;;5095811;28;20024;-68
2021/05/27 06:17:48;;;;;;;15.70;11.02;;;9.70;99.90;;;;;;5092718;28;20039;-68
2021/05/27 06:20:15;;;;;;;17.77;11.38;;;9.70;99.90;;;;;;5095828;28;20096;-68
2021/05/27 06:22:41;;;;;;;17.30;12.15;;;9.80;99.90;;;;;;5096247;28;20059;-68
2021/05/27 06:25:08;;;;;;;14.27;10.35;;;9.70;99.90;;;;;;5096207;28;20032;-69
2021/05/27 06:27:33;;;;;;;17.77;11.45;;;9.70;99.90;;;;;;5096552;28;20158;-68
2021/05/27 06:30:00;;;;;;;16.67;12.55;;;9.70;99.90;;;;;;5096702;28;20145;-69
2021/05/27 06:32:25;;;;;;;15.57;11.82;;;9.70;99.90;;;;;;5095516;28;20020;-68
2021/05/27 06:34:52;;;;;;;21.15;14.18;;;9.70;99.90;;;;;;5095392;28;20032;-68
2021/05/27 06:37:19;;;;;;;20.67;14.93;;;9.70;99.90;;;;;;5096384;28;20023;-68
2021/05/27 06:39:45;;;;;;;20.70;13.05;;;9.80;99.90;;;;;;5095210;28;20381;-68
2021/05/27 06:42:11;;;;;;;15.40;10.43;;;9.80;99.90;;;;;;5095116;28;20020;-68
2021/05/27 06:44:36;;;;;;;20.08;12.45;;;9.70;99.90;;;;;;5094801;28;20069;-68
2021/05/27 06:47:02;;;;;;;20.38;11.25;;;9.80;99.90;;;;;;5096126;28;20420;-68
2021/05/27 06:49:28;;;;;;;19.55;11.18;;;9.80;99.90;;;;;;5095336;28;20036;-69
2021/05/27 06:51:56;;;;;;;18.83;11.50;;;9.90;99.90;;;;;;5095409;28;20137;-68
2021/05/27 06:54:22;;;;;;;21.50;12.98;;;9.90;99.90;;;;;;5095293;28;20077;-69
2021/05/27 06:56:49;;;;;;;15.73;11.00;;;10.00;99.90;;;;;;5095502;28;20071;-68
2021/05/27 06:59:14;;;;;;;19.85;14.40;;;10.00;99.90;;;;;;5094406;28;20558;-68
2021/05/27 07:01:40;;;;;;;17.20;11.05;;;10.10;99.90;;;;;;5095825;28;20111;-68
2021/05/27 07:04:05;;;;;;;14.93;10.73;;;10.10;99.90;;;;;;5095509;28;20118;-68
2021/05/27 07:06:31;;;;;;;14.30;9.35;;;10.10;99.90;;;;;;5095559;28;20028;-68
2021/05/27 07:08:56;;;;;;;16.92;11.52;;;10.10;99.90;;;;;;5095306;28;20035;-68
2021/05/27 07:11:22;;;;;;;16.88;12.13;;;10.10;99.90;;;;;;5093207;28;20032;-68
2021/05/27 07:13:48;;;;;;;17.73;11.20;;;10.10;99.90;;;;;;5094726;28;20036;-68
2021/05/27 07:16:14;;;;;;;15.55;9.63;;;10.10;99.90;;;;;;5094972;28;20016;-68
2021/05/27 07:18:40;;;;;;;16.23;9.82;;;10.20;99.90;;;;;;5095665;28;20373;-68
2021/05/27 07:21:05;;;;;;;14.43;10.07;;;10.20;99.90;;;;;;5095547;28;20020;-68
2021/05/27 07:23:31;;;;;;;15.50;9.85;;;10.20;99.90;;;;;;5093695;28;20040;-68
2021/05/27 07:25:57;;;;;;;14.88;10.30;;;10.20;99.90;;;;;;5095531;28;20024;-68
2021/05/27 07:28:23;;;;;;;13.70;9.98;;;10.30;99.90;;;;;;5094940;28;20492;-68
2021/05/27 07:30:49;;;;;;;14.63;9.10;;;10.40;99.90;;;;;;5093426;28;20028;-68
2021/05/27 07:33:15;;;;;;;14.93;9.30;;;10.30;99.90;;;;;;5095945;28;20024;-68
2021/05/27 07:35:40;;;;;;;14.15;9.98;;;10.40;99.90;;;;;;5095319;28;20507;-69
2021/05/27 07:38:06;;;;;;;14.57;9.45;;;10.50;99.90;;;;;;5095238;28;20024;-68
2021/05/27 07:40:32;;;;;;;12.95;8.40;;;10.50;99.90;;;;;;5095170;28;20054;-68
2021/05/27 07:42:58;;;;;;;18.10;8.60;;;10.60;99.90;;;;;;5093337;28;20028;-69
2021/05/27 07:45:23;;;;;;;12.07;7.57;;;10.70;99.90;;;;;;5094909;28;20024;-68
2021/05/27 07:47:49;;;;;;;9.65;7.40;;;10.70;99.90;;;;;;5094369;28;20016;-68
2021/05/27 07:50:20;;;;;;;10.77;6.65;;;10.80;99.90;;;;;;5093817;28;20089;-68
2021/05/27 07:52:46;;;;;;;15.57;8.13;;;10.80;99.90;;;;;;5093996;28;20024;-68
2021/05/27 07:55:12;;;;;;;10.25;7.75;;;10.80;99.90;;;;;;5093408;28;20028;-69
2021/05/27 07:57:38;;;;;;;14.65;8.00;;;10.80;99.90;;;;;;5093946;28;20024;-69
2021/05/27 08:00:06;;;;;;;11.80;7.45;;;10.80;99.90;;;;;;5094805;28;20361;-68
2021/05/27 08:02:31;;;;;;;11.32;6.95;;;10.90;99.90;;;;;;5093386;28;20016;-68
2021/05/27 08:04:57;;;;;;;9.15;7.05;;;10.90;99.90;;;;;;5094645;28;20358;-69
2021/05/27 08:07:23;;;;;;;10.85;6.75;;;10.90;99.90;;;;;;5094648;28;20032;-69
2021/05/27 08:09:48;;;;;;;11.90;7.75;;;10.80;99.90;;;;;;5093146;28;20032;-69
2021/05/27 08:12:14;;;;;;;10.23;7.35;;;10.90;99.90;;;;;;5094718;28;20038;-69
2021/05/27 08:14:39;;;;;;;12.00;7.47;;;10.80;99.90;;;;;;5094203;28;20419;-68
2021/05/27 08:17:05;;;;;;;11.48;8.13;;;10.70;99.90;;;;;;5093408;28;20030;-69
2021/05/27 08:19:31;;;;;;;9.77;7.63;;;10.70;99.90;;;;;;5093084;28;20027;-69
2021/05/27 08:21:56;;;;;;;12.23;9.07;;;10.70;99.90;;;;;;5094365;28;20062;-69
2021/05/27 08:24:23;;;;;;;13.90;10.05;;;10.70;99.90;;;;;;5094219;28;20039;-68
2021/05/27 08:26:48;;;;;;;13.10;9.75;;;10.80;99.90;;;;;;5094063;28;20111;-69
2021/05/27 08:29:14;;;;;;;14.18;10.07;;;10.90;99.90;;;;;;5093936;28;20078;-69
2021/05/27 08:31:40;;;;;;;12.38;9.27;;;10.80;99.90;;;;;;5094208;28;20351;-68
2021/05/27 08:34:07;;;;;;;13.32;10.52;;;10.80;99.90;;;;;;5093994;28;20465;-68
2021/05/27 08:36:33;;;;;;;15.23;10.15;;;10.80;99.90;;;;;;5094274;28;20028;-68
2021/05/27 08:38:59;;;;;;;14.07;9.90;;;10.80;99.90;;;;;;5094011;28;20024;-69
2021/05/27 08:41:24;;;;;;;16.45;11.38;;;10.70;99.90;;;;;;5094205;28;20020;-68
2021/05/27 08:43:51;;;;;;;16.52;11.55;;;10.70;99.90;;;;;;5093892;28;20085;-68
2021/05/27 08:46:17;;;;;;;15.55;12.20;;;10.70;99.90;;;;;;5094179;28;20051;-68
2021/05/27 08:48:43;;;;;;;18.13;12.32;;;10.80;99.90;;;;;;5094090;28;20405;-68
2021/05/27 08:51:11;;;;;;;17.17;9.52;;;10.80;99.90;;;;;;5093447;28;20135;-68
2021/05/27 08:53:37;;;;;;;14.35;10.80;;;10.80;99.90;;;;;;5094075;28;20549;-68
2021/05/27 08:56:03;;;;;;;16.50;10.63;;;10.80;99.90;;;;;;5093781;28;20107;-68
2021/05/27 08:58:28;;;;;;;18.48;11.07;;;10.90;99.90;;;;;;5093762;28;20024;-68
2021/05/27 09:00:55;;;;;;;13.85;10.55;;;10.90;99.90;;;;;;5093881;28;20031;-68
2021/05/27 09:03:21;;;;;;;13.20;10.05;;;10.90;99.90;;;;;;5093811;28;20069;-68
2021/05/27 09:05:58;;;;;;;17.00;11.23;;;10.90;99.90;;;;;;5093997;28;20472;-68
2021/05/27 09:08:34;;;;;;;18.17;11.05;;;10.90;99.90;;;;;;5097060;28;20024;-68
2021/05/27 09:11:03;;;;;;;14.88;8.98;;;10.90;99.90;;;;;;5097774;28;20024;-68
2021/05/27 09:13:29;;;;;;;14.32;10.05;;;10.80;99.90;;;;;;5097532;28;20032;-68
2021/05/27 09:16:08;;;;;;;12.27;9.60;;;10.80;99.90;;;;;;5097475;28;20568;-68
2021/05/27 09:18:36;;;;;;;13.68;9.30;;;10.80;99.90;;;;;;5097404;28;20027;-68
2021/05/27 09:21:04;;;;;;;14.38;9.13;;;10.80;99.90;;;;;;5097172;28;20053;-68
2021/05/27 09:23:29;;;;;;;12.13;9.05;;;10.80;99.90;;;;;;5097496;28;20024;-68
2021/05/27 09:26:05;;;;;;;11.27;8.05;;;10.80;99.90;;;;;;5097147;28;20054;-68
2021/05/27 09:28:31;;;;;;;11.80;8.27;;;10.80;99.90;;;;;;5097202;28;20473;-68
2021/05/27 09:30:59;;;;;;;16.30;8.48;;;10.90;99.90;;;;;;5097050;28;20519;-68
2021/05/27 09:33:42;;;;;;;12.38;8.60;;;11.10;99.90;;;;;;5097542;28;20021;-68
2021/05/27 09:36:13;;;;;;;10.63;7.25;;;11.10;99.90;;;;;;5097071;28;20019;-68
2021/05/27 09:38:41;;;;;;;12.35;7.60;;;11.10;99.90;;;;;;5097191;28;20614;-68
2021/05/27 09:41:29;;;;;;;11.63;8.15;;;11.10;99.90;;;;;;5097331;28;20107;-68
2021/05/27 09:44:14;;;;;;;19.17;9.30;;;11.00;99.90;;;;;;5097250;28;20024;-69
2021/05/27 09:46:51;;;;;;;10.90;8.55;;;11.00;99.90;;;;;;5097263;28;20488;-68
2021/05/27 09:49:22;;;;;;;12.32;9.00;;;11.10;99.90;;;;;;5095784;28;20457;-68
2021/05/27 09:51:52;;;;;;;16.02;9.43;;;11.20;99.90;;;;;;5095437;28;20128;-69
2021/05/27 09:54:17;;;;;;;12.80;7.25;;;11.20;99.90;;;;;;5095936;28;20097;-68
2021/05/27 09:56:43;;;;;;;10.82;8.23;;;11.40;99.90;;;;;;5096970;28;20454;-69
2021/05/27 09:59:11;;;;;;;13.23;7.97;;;11.50;99.90;;;;;;5096595;28;20028;-69
2021/05/27 10:01:38;;;;;;;10.20;7.80;;;11.70;99.90;;;;;;5097083;28;20032;-68
2021/05/27 10:04:13;;;;;;;9.75;6.80;;;11.70;99.90;;;;;;5096399;28;20024;-68
2021/05/27 10:06:40;;;;;;;14.27;8.45;;;11.70;99.90;;;;;;5096380;28;20485;-68
2021/05/27 10:09:08;;;;;;;12.70;7.90;;;11.50;99.90;;;;;;5096610;28;20028;-68
2021/05/27 10:11:33;;;;;;;12.13;7.00;;;11.60;99.90;;;;;;5096852;28;20020;-69
2021/05/27 10:14:00;;;;;;;15.75;9.90;;;11.60;99.90;;;;;;5095345;28;20144;-68
2021/05/27 10:16:26;;;;;;;10.70;6.95;;;11.60;99.90;;;;;;5094664;28;20381;-68
2021/05/27 10:18:54;;;;;;;10.38;6.90;;;11.60;99.90;;;;;;5093938;28;20028;-69
2021/05/27 10:21:21;;;;;;;10.93;6.85;;;11.50;99.90;;;;;;5094901;28;20016;-69
2021/05/27 10:23:47;;;;;;;13.50;8.40;;;11.40;99.90;;;;;;5094685;28;20042;-68
2021/05/27 10:26:13;;;;;;;10.50;7.47;;;11.50;99.90;;;;;;5094675;28;20425;-68
2021/05/27 10:28:45;;;;;;;10.00;6.97;;;11.50;99.90;;;;;;5094416;28;20055;-69
2021/05/27 10:31:12;;;;;;;12.85;7.30;;;11.60;99.90;;;;;;5092341;28;20028;-69
2021/05/27 10:33:39;;;;;;;10.15;6.05;;;11.80;99.90;;;;;;5094564;28;20016;-69
2021/05/27 10:36:06;;;;;;;9.68;6.40;;;11.80;99.90;;;;;;5095887;28;20040;-68
2021/05/27 10:38:51;;;;;;;10.13;5.80;;;11.90;99.90;;;;;;5096036;28;20081;-68
2021/05/27 10:41:40;;;;;;;7.45;5.20;;;11.80;99.90;;;;;;5094820;28;20020;-68
2021/05/27 10:44:09;;;;;;;8.27;5.60;;;11.80;99.90;;;;;;5095588;28;20024;-69
2021/05/27 10:46:57;;;;;;;9.40;5.60;;;12.00;99.90;;;;;;5095788;28;20024;-68
2021/05/27 10:49:45;;;;;;;8.27;4.43;;;12.30;99.90;;;;;;5095652;28;20024;-69
2021/05/27 10:55:49;;;;;;;9.63;4.75;;;12.70;99.90;;;;;;5111415;27;20808;-69
2021/05/27 10:58:15;;;;;;;6.80;4.38;;;12.70;99.90;;;;;;5110279;28;20047;-69
2021/05/27 11:00:49;;;;;;;8.25;5.05;;;12.80;99.90;;;;;;5108295;28;20481;-69
2021/05/27 11:03:50;;;;;;;6.60;4.70;;;12.50;99.90;;;;;;5109668;28;20047;-69
2021/05/27 11:12:08;;;;;;;6.95;5.07;;;12.00;99.90;;;;;;5112113;27;20641;-69
2021/05/27 11:14:37;;;;;;;6.75;4.05;;;11.90;99.90;;;;;;5111813;28;20035;-69
2021/05/27 11:20:01;;;;;;;6.70;4.28;;;11.80;99.90;;;;;;5111978;27;20761;-68
2021/05/27 11:25:15;;;;;;;13.88;5.22;;;11.70;99.90;;;;;;5111608;27;20302;-68
2021/05/27 11:27:50;;;;;;;7.97;4.88;;;11.90;99.90;;;;;;5112015;28;20024;-69
2021/05/27 11:30:22;;;;;;;10.27;5.38;;;11.90;99.90;;;;;;5111509;28;20076;-69
2021/05/27 11:33:00;;;;;;;7.63;4.70;;;11.90;99.90;;;;;;5111395;28;20044;-69
2021/05/27 11:35:28;;;;;;;8.43;5.72;;;12.00;99.90;;;;;;5110404;28;20020;-69
2021/05/27 11:37:55;;;;;;;8.85;5.90;;;12.20;99.90;;;;;;5110470;28;20055;-69
2021/05/27 11:40:22;;;;;;;8.75;5.57;;;12.40;99.90;;;;;;5111078;28;20064;-69
2021/05/27 11:42:51;;;;;;;8.80;5.03;;;12.60;99.90;;;;;;5109121;28;20119;-69
2021/05/27 11:45:19;;;;;;;9.68;5.55;;;12.80;99.90;;;;;;5119915;28;20028;-69
2021/05/27 11:48:09;;;;;;;9.65;5.93;;;13.00;99.90;;;;;;5109412;28;20027;-69
2021/05/27 11:50:35;;;;;;;8.40;5.38;;;13.20;99.90;;;;;;5109134;28;20020;-70
2021/05/27 11:53:00;;;;;;;6.63;5.00;;;13.40;99.90;;;;;;5110682;28;20024;-69
2021/05/27 11:55:27;;;;;;;8.00;4.93;;;13.40;99.90;;;;;;5109741;28;20096;-69
2021/05/27 11:57:53;;;;;;;8.73;5.97;;;12.90;99.90;;;;;;5109942;28;20469;-69
2021/05/27 12:00:20;;;;;;;10.82;6.13;;;12.50;99.90;;;;;;5120171;28;20019;-69
2021/05/27 12:02:48;;;;;;;11.93;6.20;;;12.20;99.90;;;;;;5130006;28;20027;-69
2021/05/27 12:05:32;;;;;;;14.40;7.10;;;12.10;99.90;;;;;;5131001;27;20022;-69
2021/05/27 12:08:04;;;;;;;16.85;8.88;;;12.10;99.90;;;;;;5130963;28;20375;-69
2021/05/27 12:10:35;;;;;;;14.93;7.78;;;12.10;99.90;;;;;;5131473;28;20031;-69
2021/05/27 12:13:02;;;;;;;13.02;6.95;;;12.10;99.90;;;;;;5131161;28;20043;-69
2021/05/27 12:15:28;;;;;;;13.93;7.22;;;12.00;99.90;;;;;;5131298;28;20015;-69
2021/05/27 12:17:57;;;;;;;13.75;7.05;;;12.10;99.90;;;;;;5131396;28;20103;-69
2021/05/27 12:20:39;;;;;;;12.43;7.53;;;12.10;99.90;;;;;;5131302;28;20023;-69
2021/05/27 12:23:08;;;;;;;14.90;7.18;;;12.00;99.90;;;;;;5130598;28;20069;-69
2021/05/27 12:25:36;;;;;;;17.05;7.93;;;12.00;99.90;;;;;;5117849;28;20035;-69
2021/05/27 12:28:04;;;;;;;12.00;7.00;;;12.00;99.90;;;;;;5110435;28;20020;-69
2021/05/27 12:30:35;;;;;;;10.70;5.93;;;12.20;99.90;;;;;;5110653;28;20043;-69
2021/05/27 12:33:02;;;;;;;9.52;6.80;;;12.20;99.90;;;;;;5110054;28;20039;-69
2021/05/27 12:35:32;;;;;;;13.52;6.95;;;12.10;99.90;;;;;;5101651;28;20074;-69
2021/05/27 12:37:59;;;;;;;9.02;5.93;;;12.10;99.90;;;;;;5096246;28;20461;-69
2021/05/27 12:40:33;;;;;;;11.68;6.57;;;12.00;99.90;;;;;;5096016;28;20028;-69
2021/05/27 12:43:01;;;;;;;13.57;6.70;;;12.10;99.90;;;;;;5095240;28;20035;-69
2021/05/27 12:45:32;;;;;;;12.23;6.75;;;12.10;99.90;;;;;;5094086;28;20027;-69
2021/05/27 12:48:09;;;;;;;14.00;7.30;;;12.10;99.90;;;;;;5096716;28;20020;-69
2021/05/27 12:50:37;;;;;;;11.02;6.43;;;12.10;99.90;;;;;;5097791;28;20520;-69
2021/05/27 12:53:03;;;;;;;16.05;7.25;;;12.10;99.90;;;;;;5116557;28;20415;-69
2021/05/27 12:55:33;;;;;;;12.25;7.53;;;12.10;99.90;;;;;;5115635;28;20042;-69
2021/05/27 12:57:59;;;;;;;16.05;7.88;;;12.20;99.90;;;;;;5102793;28;20024;-69
2021/05/27 13:00:26;;;;;;;14.95;6.82;;;12.00;99.90;;;;;;5099640;28;20031;-69